< < Back
Terminal Aerodrome Forecast


Current Version              Previous Versions:   1  2  3  4  5  6  7  8  9  

Terminal Aerodrome Forecast

541
FTUS44 KBMX 030500
TAFANB
TAF
KANB 030534Z 0306/0406 10002KT P6SM OVC012
     FM030900 VRB03KT 2SM -SHRA BR OVC006
     FM031100 VRB03KT 3SM BR OVC004
     FM031800 13004KT 5SM -SHRA BR OVC008=

Latest METAR

371
SAUS70 KWBC 030700 RRD
MTRANB
METAR KANB 030653Z AUTO 04005KT 10SM OVC013 12/09 A3022 RMK AO2 SLP234
T01170089


USA.gov is the U.S. government's official web portal to all federal, state and local government web resources and services.